Time;durP1;ratioP1;P1;durP2;ratioP2;P2;SDS_P1;SDS_P2;PMS_P1;PMS_P2;Temp;Humidity;BMP_temperature;BMP_pressure;BME280_temperature;BME280_humidity;BME280_pressure;Samples;Min_cycle;Max_cycle;Signal;HPM_P1;HPM_P2
2022/04/19 00:00:33;;;;;;;32.83;19.00;;;16.50;68.30;;;;;;4977028;28;20185;-90
2022/04/19 00:03:00;;;;;;;30.03;17.93;;;16.40;68.50;;;;;;4976837;28;20177;-91
2022/04/19 00:05:27;;;;;;;34.33;19.40;;;16.40;68.40;;;;;;4976601;28;20186;-90
2022/04/19 00:07:53;;;;;;;32.87;18.83;;;16.50;68.30;;;;;;4976752;28;20193;-90
2022/04/19 00:10:19;;;;;;;33.47;20.20;;;16.40;68.60;;;;;;4976734;28;20182;-90
2022/04/19 00:12:45;;;;;;;30.90;19.70;;;16.40;68.60;;;;;;4976829;28;20681;-90
2022/04/19 00:15:11;;;;;;;34.03;19.43;;;16.10;69.70;;;;;;4976825;28;20326;-90
2022/04/19 00:17:37;;;;;;;32.77;21.07;;;16.00;69.80;;;;;;4976625;28;20641;-91
2022/04/19 00:20:03;;;;;;;32.13;20.50;;;16.10;69.60;;;;;;4976640;28;20217;-90
2022/04/19 00:22:32;;;;;;;37.60;21.13;;;16.20;68.90;;;;;;4976902;28;20205;-90
2022/04/19 00:24:57;;;;;;;35.63;21.73;;;16.00;69.50;;;;;;4976557;28;20452;-90
2022/04/19 00:27:23;;;;;;;35.20;21.47;;;15.90;69.80;;;;;;4976922;28;20526;-90
2022/04/19 00:29:49;;;;;;;36.47;22.77;;;15.60;71.00;;;;;;4976378;28;20174;-89
2022/04/19 00:32:16;;;;;;;37.53;21.57;;;15.50;71.00;;;;;;4976523;28;20221;-90
2022/04/19 00:34:41;;;;;;;32.63;19.87;;;15.40;71.30;;;;;;4976220;28;20188;-91
2022/04/19 00:37:07;;;;;;;33.60;21.17;;;15.30;73.10;;;;;;4976519;28;20181;-89
2022/04/19 00:39:33;;;;;;;32.43;20.57;;;15.30;72.30;;;;;;4976246;28;20174;-90
2022/04/19 00:41:59;;;;;;;34.70;21.40;;;15.10;73.70;;;;;;4976486;28;20292;-90
2022/04/19 00:44:25;;;;;;;37.17;21.17;;;15.00;74.80;;;;;;4976581;28;20229;-91
2022/04/19 00:46:51;;;;;;;33.43;21.43;;;14.90;75.40;;;;;;4976265;28;20181;-92
2022/04/19 00:49:17;;;;;;;32.17;20.37;;;14.80;75.90;;;;;;4976229;28;20604;-90
2022/04/19 00:51:46;;;;;;;32.00;21.03;;;14.90;75.80;;;;;;4976076;28;20184;-90
2022/04/19 00:54:18;;;;;;;36.50;22.60;;;14.90;75.10;;;;;;4976318;28;20197;-90
2022/04/19 00:56:44;;;;;;;41.33;22.93;;;15.20;73.40;;;;;;4979680;28;20220;-89
2022/04/19 00:59:10;;;;;;;36.47;22.67;;;15.50;71.90;;;;;;4979875;28;20257;-90
2022/04/19 01:01:37;;;;;;;35.97;22.47;;;15.80;71.10;;;;;;4979934;28;20256;-90
2022/04/19 01:04:03;;;;;;;34.33;22.50;;;15.60;71.90;;;;;;4979704;28;20638;-89
2022/04/19 01:06:32;;;;;;;40.23;23.30;;;15.60;71.60;;;;;;4979838;28;20214;-90
2022/04/19 01:08:58;;;;;;;37.13;23.43;;;15.40;73.00;;;;;;4980235;28;20176;-90
2022/04/19 01:14:12;;;;;;;39.07;23.80;;;15.40;72.70;;;;;;4997187;28;20191;-90
2022/04/19 01:16:40;;;;;;;40.13;23.67;;;15.70;72.60;;;;;;4979503;28;20221;-92
2022/04/19 01:19:15;;;;;;;38.87;23.60;;;15.50;72.00;;;;;;4979982;28;20264;-89
2022/04/19 01:21:54;;;;;;;38.30;23.37;;;15.60;72.10;;;;;;4979471;28;20271;-90
2022/04/19 01:24:23;;;;;;;37.07;23.20;;;15.20;73.80;;;;;;4979622;28;20177;-89
2022/04/19 01:26:52;;;;;;;38.93;23.93;;;15.30;73.30;;;;;;4979669;28;20162;-90
2022/04/19 01:29:18;;;;;;;40.63;24.73;;;15.50;72.60;;;;;;4979278;28;20178;-90
2022/04/19 01:31:45;;;;;;;41.63;25.13;;;15.50;73.00;;;;;;4979135;28;20525;-90
2022/04/19 01:34:11;;;;;;;38.37;24.37;;;15.30;73.20;;;;;;4979635;28;20291;-90
2022/04/19 01:36:38;;;;;;;38.00;23.47;;;15.40;72.90;;;;;;4979397;28;20245;-91
2022/04/19 01:39:09;;;;;;;36.00;24.20;;;15.20;74.20;;;;;;4979600;28;20222;-90
2022/04/19 01:41:36;;;;;;;37.93;24.07;;;14.80;76.50;;;;;;4979421;28;20211;-90
2022/04/19 01:44:05;;;;;;;35.90;23.83;;;14.50;78.10;;;;;;4978893;28;20178;-90
2022/04/19 01:46:34;;;;;;;41.60;23.97;;;14.40;79.20;;;;;;4978814;28;20192;-90
2022/04/19 01:49:02;;;;;;;36.47;22.60;;;14.30;79.30;;;;;;4978802;28;20638;-90
2022/04/19 01:51:28;;;;;;;36.53;23.07;;;14.20;80.20;;;;;;4978502;28;20178;-90
2022/04/19 01:53:57;;;;;;;38.90;24.13;;;14.30;80.20;;;;;;4979014;28;20545;-89
2022/04/19 01:56:23;;;;;;;40.43;25.47;;;14.20;80.60;;;;;;4978698;28;20226;-90
2022/04/19 01:58:49;;;;;;;35.47;23.30;;;14.20;81.00;;;;;;4979103;28;20205;-89
2022/04/19 02:01:15;;;;;;;40.57;24.07;;;14.30;80.90;;;;;;4978676;28;20200;-90
2022/04/19 02:03:41;;;;;;;36.80;24.40;;;14.20;81.20;;;;;;4978389;28;20240;-90
2022/04/19 02:06:10;;;;;;;37.53;25.63;;;14.10;81.50;;;;;;4978590;28;20182;-93
2022/04/19 02:08:37;;;;;;;36.53;25.67;;;14.10;81.30;;;;;;4978322;28;20185;-90
2022/04/19 02:11:03;;;;;;;34.63;23.97;;;14.30;80.50;;;;;;4978876;28;20189;-89
2022/04/19 02:13:28;;;;;;;39.40;25.97;;;14.20;80.70;;;;;;4978550;28;20188;-90
2022/04/19 02:15:54;;;;;;;37.00;24.77;;;14.40;80.20;;;;;;4978585;28;20214;-91
2022/04/19 02:18:20;;;;;;;40.63;26.07;;;14.30;80.80;;;;;;4978570;28;20619;-91
2022/04/19 02:20:46;;;;;;;36.33;24.43;;;14.40;80.50;;;;;;4978562;28;20185;-90
2022/04/19 02:23:15;;;;;;;37.23;26.07;;;14.40;80.90;;;;;;4978770;28;20658;-90
2022/04/19 02:25:42;;;;;;;39.00;26.03;;;14.40;80.40;;;;;;4980198;28;20180;-89
2022/04/19 02:28:10;;;;;;;42.20;26.90;;;14.90;78.60;;;;;;4980534;28;20646;-90
2022/04/19 02:30:36;;;;;;;39.87;26.90;;;14.90;78.40;;;;;;4984033;28;20194;-89
2022/04/19 02:33:03;;;;;;;42.90;26.90;;;14.90;78.30;;;;;;4992274;28;20212;-90
2022/04/19 02:35:31;;;;;;;44.30;28.10;;;15.00;77.90;;;;;;4993387;28;20271;-89
2022/04/19 02:37:58;;;;;;;40.50;27.67;;;15.00;78.00;;;;;;4984022;28;20168;-92
2022/04/19 02:40:26;;;;;;;41.40;28.47;;;15.20;77.30;;;;;;4978579;28;20173;-91
2022/04/19 02:42:54;;;;;;;44.23;27.37;;;14.90;78.20;;;;;;4977412;28;20185;-90
2022/04/19 02:45:24;;;;;;;42.43;27.83;;;14.90;78.90;;;;;;4977913;28;20181;-92
2022/04/19 02:48:08;;;;;;;46.37;28.43;;;14.80;79.50;;;;;;4977640;28;20181;-90
2022/04/19 02:50:45;;;;;;;40.00;27.80;;;14.60;80.60;;;;;;4977610;28;20181;-90
2022/04/19 02:53:12;;;;;;;39.97;28.07;;;14.40;81.70;;;;;;4977543;28;20181;-92
2022/04/19 02:55:38;;;;;;;42.70;27.80;;;14.20;82.50;;;;;;4977520;28;20217;-90
2022/04/19 02:58:07;;;;;;;45.43;28.60;;;14.40;82.20;;;;;;4977513;28;20174;-90
2022/04/19 03:00:32;;;;;;;47.93;29.73;;;14.30;83.00;;;;;;4977752;28;20213;-90
2022/04/19 03:02:58;;;;;;;44.53;30.30;;;14.30;83.00;;;;;;4977567;28;20189;-91
2022/04/19 03:05:24;;;;;;;47.23;30.57;;;14.50;82.70;;;;;;4977978;28;20630;-90
2022/04/19 03:07:49;;;;;;;42.83;29.70;;;14.60;82.60;;;;;;4977651;28;20193;-90
2022/04/19 03:10:16;;;;;;;45.33;30.07;;;14.40;82.70;;;;;;4977839;28;20174;-90
2022/04/19 03:12:46;;;;;;;50.87;30.00;;;14.30;83.60;;;;;;4977866;28;20188;-90
2022/04/19 03:15:12;;;;;;;40.97;29.53;;;13.90;86.10;;;;;;4977571;28;20205;-90
2022/04/19 03:17:38;;;;;;;48.90;29.43;;;13.60;87.60;;;;;;4977040;28;20252;-90
2022/04/19 03:20:08;;;;;;;42.67;29.90;;;13.50;88.60;;;;;;4977077;28;20619;-91
2022/04/19 03:28:05;;;;;;;49.13;32.03;;;14.10;86.40;;;;;;4994606;28;20704;-91
2022/04/19 03:30:32;;;;;;;48.07;32.30;;;13.90;87.10;;;;;;4977026;28;20283;-90
2022/04/19 03:32:59;;;;;;;47.13;31.70;;;14.10;87.20;;;;;;4976620;28;20549;-90
2022/04/19 03:35:25;;;;;;;45.80;31.27;;;14.00;86.70;;;;;;4976984;28;20675;-90
2022/04/19 03:37:51;;;;;;;47.07;32.07;;;14.00;87.10;;;;;;4977185;28;20184;-90
2022/04/19 03:40:16;;;;;;;46.53;31.13;;;13.90;88.20;;;;;;4977165;28;20193;-90
2022/04/19 03:42:42;;;;;;;43.50;29.83;;;13.60;89.60;;;;;;4977673;28;20177;-90
2022/04/19 03:45:09;;;;;;;46.17;30.87;;;13.30;90.80;;;;;;4977011;28;20185;-91
2022/04/19 03:47:35;;;;;;;46.33;30.80;;;13.20;91.40;;;;;;4977079;28;20181;-90
2022/04/19 03:50:01;;;;;;;51.90;32.23;;;13.00;91.90;;;;;;4977168;28;20191;-90
2022/04/19 03:52:27;;;;;;;47.70;31.10;;;12.90;92.30;;;;;;4977004;28;20186;-90
2022/04/19 03:54:53;;;;;;;48.37;31.77;;;12.80;92.80;;;;;;4977013;28;20176;-90
2022/04/19 03:57:19;;;;;;;46.20;32.03;;;12.90;92.80;;;;;;4977067;28;20205;-90
2022/04/19 03:59:45;;;;;;;48.50;32.90;;;13.50;91.50;;;;;;4977254;28;20274;-90
2022/04/19 04:02:12;;;;;;;45.93;31.90;;;13.50;91.70;;;;;;4977000;28;20200;-90
2022/04/19 04:04:38;;;;;;;46.23;31.77;;;13.40;92.10;;;;;;4977195;28;20288;-90
2022/04/19 04:07:05;;;;;;;51.80;32.07;;;13.20;92.50;;;;;;4977347;28;20270;-90
2022/04/19 04:09:37;;;;;;;46.77;31.40;;;13.00;93.20;;;;;;4979586;28;20653;-90
2022/04/19 04:12:14;;;;;;;48.67;32.37;;;12.80;93.80;;;;;;4979013;28;20180;-89
2022/04/19 04:14:42;;;;;;;48.13;32.37;;;12.70;94.30;;;;;;4980317;28;20187;-90
2022/04/19 04:17:11;;;;;;;45.57;31.17;;;12.80;94.60;;;;;;4978348;28;20277;-90
2022/04/19 04:19:37;;;;;;;44.80;31.30;;;12.80;94.60;;;;;;4977033;28;20255;-90
2022/04/19 04:22:04;;;;;;;48.67;31.67;;;12.70;94.80;;;;;;4976796;28;20185;-90
2022/04/19 04:24:32;;;;;;;48.10;31.90;;;12.70;95.00;;;;;;4976444;28;20186;-91
2022/04/19 04:26:57;;;;;;;44.23;31.47;;;12.70;95.30;;;;;;4976792;28;20182;-90
2022/04/19 04:29:23;;;;;;;47.20;32.23;;;12.70;95.60;;;;;;4976836;28;20181;-90
2022/04/19 04:31:49;;;;;;;47.90;32.33;;;12.60;95.90;;;;;;4980370;28;20192;-90
2022/04/19 04:34:15;;;;;;;50.43;32.67;;;12.70;96.00;;;;;;4980533;28;20184;-90
2022/04/19 05:30:41;;;;;;;48.97;31.77;;;12.80;99.00;;;;;;4778859;29;20201;-92
2022/04/19 05:33:11;;;;;;;47.70;31.97;;;12.90;99.30;;;;;;4834124;29;20194;-92
2022/04/19 05:35:59;;;;;;;51.63;32.97;;;13.00;98.80;;;;;;4862015;29;20225;-91
2022/04/19 05:39:05;;;;;;;;;;;;;;;;;;;;;
2022/04/19 05:41:45;;;;;;;;;;;;;;;;;;;;;
2022/04/19 05:44:21;;;;;;;50.67;33.37;;;13.10;98.80;;;;;;5009491;28;20181;-93
2022/04/19 05:46:58;;;;;;;54.27;33.23;;;13.10;98.70;;;;;;5014888;28;20177;-93
2022/04/19 05:49:24;;;;;;;54.10;32.87;;;13.10;98.90;;;;;;4990286;28;20185;-90
2022/04/19 05:51:50;;;;;;;50.00;31.80;;;13.20;99.60;;;;;;4978533;28;20643;-91
2022/04/19 05:54:15;;;;;;;46.67;32.73;;;13.20;99.20;;;;;;4988513;28;20238;-94
2022/04/19 05:56:42;;;;;;;58.77;32.70;;;13.40;99.30;;;;;;4997689;28;20206;-94
2022/04/19 05:59:08;;;;;;;52.13;33.07;;;13.40;99.50;;;;;;4998373;28;20185;-95
2022/04/19 06:07:03;;;;;;;59.57;35.77;;;13.50;99.00;;;;;;5015520;28;20239;-94
2022/04/19 06:09:28;;;;;;;53.63;32.10;;;13.60;98.70;;;;;;4997964;28;20169;-96
2022/04/19 06:11:54;;;;;;;58.30;34.30;;;13.70;98.20;;;;;;5013863;28;20279;-94
2022/04/19 06:14:19;;;;;;;53.33;32.37;;;13.90;97.40;;;;;;4998156;28;20275;-95
2022/04/19 06:16:45;;;;;;;58.37;33.83;;;13.80;97.70;;;;;;4997906;28;20219;-93
2022/04/19 06:19:11;;;;;;;58.07;32.73;;;13.80;97.80;;;;;;4997378;28;20550;-96
2022/04/19 06:21:36;;;;;;;58.20;34.50;;;13.80;98.10;;;;;;4998156;28;20667;-96
2022/04/19 06:24:04;;;;;;;58.90;33.37;;;14.00;97.50;;;;;;4998178;28;20180;-95
2022/04/19 06:26:30;;;;;;;64.53;34.37;;;14.20;96.60;;;;;;5013892;28;20310;-95
2022/04/19 06:28:56;;;;;;;54.57;33.93;;;14.10;96.90;;;;;;4997534;28;20260;-95
2022/04/19 06:31:21;;;;;;;60.53;34.00;;;14.30;96.30;;;;;;4997501;28;20708;-95
2022/04/19 06:33:49;;;;;;;60.93;31.77;;;14.30;96.20;;;;;;4997432;28;20180;-95
2022/04/19 06:36:16;;;;;;;64.70;34.00;;;14.30;96.70;;;;;;4998485;28;20211;-94
2022/04/19 06:38:41;;;;;;;62.07;34.50;;;14.20;96.70;;;;;;4998337;28;20168;-95
2022/04/19 06:41:11;;;;;;;61.30;34.40;;;14.40;96.20;;;;;;4997915;28;20172;-95
2022/04/19 06:43:37;;;;;;;61.13;35.03;;;14.60;95.80;;;;;;5013853;28;20182;-95
2022/04/19 06:46:03;;;;;;;66.53;34.20;;;14.90;95.20;;;;;;4981655;28;20204;-96
2022/04/19 06:48:29;;;;;;;74.47;35.73;;;15.10;94.40;;;;;;4997132;28;20253;-94
2022/04/19 06:50:55;;;;;;;70.53;34.77;;;15.10;94.40;;;;;;4998047;28;20586;-96
2022/04/19 06:53:21;;;;;;;76.30;35.00;;;15.30;93.70;;;;;;4996760;28;20184;-94
2022/04/19 06:55:51;;;;;;;74.17;34.77;;;15.30;93.30;;;;;;4997889;28;20220;-94
2022/04/19 06:58:19;;;;;;;65.40;33.93;;;15.20;93.60;;;;;;4997722;28;20183;-90
2022/04/19 07:00:45;;;;;;;66.13;34.93;;;15.40;93.40;;;;;;4997844;28;20178;-90
2022/04/19 07:03:11;;;;;;;67.47;33.70;;;15.50;92.90;;;;;;4997193;28;20184;-90
2022/04/19 07:05:38;;;;;;;61.07;33.00;;;15.40;93.30;;;;;;5000667;28;20545;-93
2022/04/19 07:08:05;;;;;;;63.73;33.33;;;15.20;93.50;;;;;;5002215;28;20191;-89
2022/04/19 07:10:31;;;;;;;63.03;33.27;;;15.40;93.50;;;;;;5003135;28;20299;-90
2022/04/19 07:12:56;;;;;;;69.73;32.07;;;15.80;92.50;;;;;;4999294;28;20272;-90
2022/04/19 07:15:22;;;;;;;64.30;31.03;;;15.70;92.30;;;;;;4996640;28;20585;-89
2022/04/19 07:17:48;;;;;;;68.53;32.90;;;15.90;92.30;;;;;;4996956;28;20196;-90
2022/04/19 07:28:25;;;;;;;58.73;29.77;;;16.70;89.70;;;;;;5014128;28;20281;-88
2022/04/19 07:30:51;;;;;;;63.33;28.10;;;16.90;87.80;;;;;;4997003;28;20181;-88
2022/04/19 07:33:17;;;;;;;57.47;30.30;;;16.90;87.00;;;;;;4997287;28;20173;-88
2022/04/19 07:35:46;;;;;;;71.10;30.30;;;17.10;86.10;;;;;;4997164;28;20213;-88
2022/04/19 07:38:12;;;;;;;67.37;29.30;;;17.00;86.10;;;;;;5013296;28;20271;-91
2022/04/19 07:40:38;;;;;;;86.27;31.07;;;16.90;86.40;;;;;;4996518;28;20204;-88
2022/04/19 07:43:04;;;;;;;64.07;28.83;;;16.90;86.70;;;;;;4996511;28;20609;-88
2022/04/19 07:45:30;;;;;;;67.37;28.80;;;17.20;85.50;;;;;;4996220;28;20240;-88
2022/04/19 07:47:57;;;;;;;60.60;27.83;;;17.40;84.10;;;;;;4996759;28;20192;-89
2022/04/19 07:50:22;;;;;;;60.87;28.93;;;17.50;83.10;;;;;;4996251;28;20277;-88
2022/04/19 07:52:48;;;;;;;63.13;29.80;;;17.70;82.70;;;;;;4996249;28;20273;-90
2022/04/19 07:55:15;;;;;;;54.60;26.57;;;17.80;82.30;;;;;;4996156;28;20238;-88
2022/04/19 07:57:41;;;;;;;57.73;27.07;;;17.90;81.60;;;;;;4996372;28;20177;-90
2022/04/19 08:00:07;;;;;;;59.33;26.03;;;18.00;80.50;;;;;;4995924;28;20231;-89
2022/04/19 08:02:33;;;;;;;51.83;25.40;;;18.10;79.90;;;;;;4996198;28;20186;-90
2022/04/19 08:04:59;;;;;;;47.43;24.80;;;18.20;79.30;;;;;;4999406;28;20270;-90
2022/04/19 08:07:24;;;;;;;40.97;25.33;;;18.20;78.90;;;;;;5000151;28;20606;-91
2022/04/19 08:09:50;;;;;;;56.07;24.70;;;18.40;79.00;;;;;;5000319;28;20174;-90
2022/04/19 08:12:15;;;;;;;49.13;23.03;;;18.30;79.00;;;;;;5000068;28;20185;-90
2022/04/19 08:14:41;;;;;;;36.27;20.87;;;18.40;77.60;;;;;;5000299;28;20216;-91
2022/04/19 08:17:07;;;;;;;38.37;19.40;;;18.50;75.60;;;;;;5003836;28;20211;-90
2022/04/19 08:19:33;;;;;;;28.57;18.83;;;18.60;74.50;;;;;;5002943;28;20175;-90
2022/04/19 08:21:59;;;;;;;26.60;18.40;;;18.60;72.60;;;;;;4999961;28;20214;-90
2022/04/19 08:24:25;;;;;;;27.33;17.03;;;18.80;72.10;;;;;;5000131;28;20549;-91
2022/04/19 08:26:51;;;;;;;21.00;14.43;;;18.70;71.80;;;;;;5000129;28;20274;-90
2022/04/19 08:29:16;;;;;;;19.13;13.70;;;18.90;69.70;;;;;;5000212;28;20614;-91
2022/04/19 08:31:42;;;;;;;16.53;11.50;;;19.20;66.40;;;;;;4999934;28;20184;-90
2022/04/19 08:34:08;;;;;;;16.30;11.13;;;19.40;63.80;;;;;;4983601;28;20184;-90
2022/04/19 08:36:34;;;;;;;15.03;10.50;;;19.40;63.80;;;;;;4999647;28;20239;-90
2022/04/19 08:39:00;;;;;;;15.10;11.43;;;19.60;62.90;;;;;;4999746;28;20219;-90
2022/04/19 08:41:27;;;;;;;16.37;11.63;;;19.60;62.90;;;;;;4999588;28;20674;-90
2022/04/19 08:43:52;;;;;;;13.53;10.10;;;19.70;62.60;;;;;;4999322;28;20181;-90
2022/04/19 08:46:18;;;;;;;16.33;10.23;;;19.80;61.00;;;;;;4999318;28;20275;-92
2022/04/19 08:48:45;;;;;;;15.77;11.30;;;19.90;61.90;;;;;;4999770;28;20176;-90
2022/04/19 08:51:12;;;;;;;14.67;10.70;;;20.00;62.10;;;;;;4999460;28;20660;-91
2022/04/19 08:59:07;;;;;;;14.17;10.27;;;20.20;59.90;;;;;;5017337;28;20287;-88
2022/04/19 09:01:35;;;;;;;13.37;9.43;;;20.40;59.60;;;;;;4999409;28;20200;-89
2022/04/19 09:04:04;;;;;;;16.80;9.60;;;20.40;59.50;;;;;;5000648;28;20165;-88
2022/04/19 09:06:50;;;;;;;13.00;9.00;;;20.50;58.70;;;;;;5000818;28;20177;-89
2022/04/19 09:09:19;;;;;;;12.00;9.10;;;20.60;58.00;;;;;;5001701;28;20177;-88
2022/04/19 09:11:45;;;;;;;14.30;9.73;;;20.50;57.40;;;;;;5015397;28;20184;-88
2022/04/19 09:14:10;;;;;;;12.23;9.03;;;20.60;57.60;;;;;;5015630;28;20177;-91
2022/04/19 09:16:36;;;;;;;14.10;8.83;;;20.60;58.70;;;;;;5014274;28;20645;-88
2022/04/19 09:19:02;;;;;;;13.40;8.70;;;20.70;58.40;;;;;;5015480;28;20180;-88
2022/04/19 09:21:38;;;;;;;12.97;9.13;;;20.80;57.10;;;;;;5015053;28;20177;-89
2022/04/19 09:24:17;;;;;;;11.30;8.03;;;20.80;56.70;;;;;;4999210;28;20204;-90
2022/04/19 09:26:44;;;;;;;12.33;8.57;;;20.70;57.30;;;;;;4999195;28;20177;-89
2022/04/19 09:29:27;;;;;;;14.33;8.57;;;21.00;56.90;;;;;;5015131;28;20181;-88
2022/04/19 09:32:01;;;;;;;10.10;7.90;;;21.10;56.40;;;;;;4998661;28;20625;-88
2022/04/19 09:34:33;;;;;;;10.67;7.03;;;21.00;56.60;;;;;;4998548;28;20231;-90
2022/04/19 09:37:06;;;;;;;8.23;6.40;;;21.10;54.50;;;;;;4998573;28;20819;-89
2022/04/19 09:39:34;;;;;;;10.97;6.53;;;21.00;54.30;;;;;;4998888;28;20178;-85
2022/04/19 09:42:16;;;;;;;10.83;6.80;;;21.10;54.40;;;;;;5014645;28;20181;-84
2022/04/19 09:44:43;;;;;;;10.50;7.50;;;21.20;54.40;;;;;;4998689;28;20181;-85
2022/04/19 09:47:10;;;;;;;12.73;7.37;;;21.30;54.80;;;;;;4997837;28;20204;-85
2022/04/19 09:49:51;;;;;;;10.90;8.20;;;21.40;54.70;;;;;;4997799;28;20186;-85
2022/04/19 09:52:24;;;;;;;16.30;8.70;;;21.60;54.20;;;;;;5014185;28;20238;-86
2022/04/19 09:55:10;;;;;;;13.17;8.33;;;21.60;54.30;;;;;;4997866;28;20200;-85
2022/04/19 09:57:38;;;;;;;12.43;7.70;;;21.50;54.00;;;;;;5015167;28;20193;-86
2022/04/19 10:00:06;;;;;;;10.60;7.27;;;21.40;54.30;;;;;;5014299;28;20173;-85
2022/04/19 10:08:18;;;;;;;11.43;8.20;;;21.60;54.60;;;;;;5015239;28;20180;-86
2022/04/19 10:10:47;;;;;;;12.23;7.47;;;21.60;54.90;;;;;;4997942;28;20192;-90
2022/04/19 10:13:13;;;;;;;8.97;6.07;;;21.90;54.30;;;;;;5014158;28;20181;-90
2022/04/19 10:15:40;;;;;;;10.23;7.40;;;22.10;53.70;;;;;;5014448;28;20244;-90
2022/04/19 10:18:07;;;;;;;9.37;6.53;;;22.10;53.50;;;;;;5014320;28;20184;-90
2022/04/19 10:20:41;;;;;;;9.97;5.37;;;22.20;53.60;;;;;;4998067;28;20173;-90
2022/04/19 10:23:09;;;;;;;7.67;5.67;;;22.60;50.20;;;;;;4997877;28;20233;-90
2022/04/19 10:25:46;;;;;;;8.13;5.17;;;22.80;49.70;;;;;;4997962;28;20170;-90
2022/04/19 10:28:30;;;;;;;9.50;5.73;;;22.80;49.10;;;;;;4998411;28;20185;-89
2022/04/19 10:30:58;;;;;;;11.27;5.27;;;22.70;48.90;;;;;;5014208;28;20207;-91
2022/04/19 10:33:44;;;;;;;9.87;5.60;;;22.60;48.30;;;;;;4997249;28;20208;-90
2022/04/19 10:36:28;;;;;;;12.03;6.30;;;22.70;48.80;;;;;;4997617;28;20228;-90
2022/04/19 10:39:13;;;;;;;9.00;5.57;;;22.60;49.60;;;;;;4997709;28;20200;-90
2022/04/19 10:41:48;;;;;;;8.80;5.90;;;22.80;49.60;;;;;;4997642;28;20185;-91
2022/04/19 10:44:28;;;;;;;8.37;5.63;;;23.10;48.00;;;;;;5013741;28;20247;-90
2022/04/19 10:47:29;;;;;;;10.40;6.30;;;23.20;48.40;;;;;;4997426;28;20174;-91
2022/04/19 10:50:07;;;;;;;9.10;6.23;;;23.30;48.10;;;;;;4997324;28;20184;-90
2022/04/19 10:52:39;;;;;;;10.27;7.40;;;23.30;48.10;;;;;;4997632;28;20176;-90
2022/04/19 10:55:18;;;;;;;11.63;6.40;;;23.40;48.80;;;;;;4997250;28;20185;-91
2022/04/19 11:00:40;;;;;;;10.33;6.30;;;23.50;48.80;;;;;;5015063;28;20188;-91
2022/04/19 11:03:39;;;;;;;11.23;6.93;;;23.90;48.20;;;;;;4997296;28;20185;-90
2022/04/19 11:06:30;;;;;;;8.23;6.20;;;24.30;46.70;;;;;;5001838;28;20188;-90
2022/04/19 11:09:19;;;;;;;8.60;6.07;;;24.70;45.60;;;;;;4997204;28;20185;-90
2022/04/19 11:11:47;;;;;;;8.40;6.07;;;25.20;45.70;;;;;;5013561;28;20603;-91
2022/04/19 11:14:34;;;;;;;9.67;7.00;;;25.80;45.90;;;;;;4997022;28;20181;-91
2022/04/19 11:17:21;;;;;;;9.37;6.53;;;26.50;45.00;;;;;;4996891;28;20316;-91
2022/04/19 11:20:06;;;;;;;12.77;6.87;;;27.10;44.40;;;;;;4996961;28;20185;-91
2022/04/19 11:22:51;;;;;;;8.23;6.20;;;27.70;43.90;;;;;;5013486;28;20199;-91
2022/04/19 11:25:40;;;;;;;9.93;6.10;;;28.00;43.60;;;;;;5014585;28;20199;-91
2022/04/19 11:28:08;;;;;;;7.70;5.80;;;28.50;42.20;;;;;;5013953;28;20181;-92
2022/04/19 11:30:36;;;;;;;8.23;5.35;;;28.90;41.10;;;;;;4997508;28;20189;-91
2022/04/19 11:33:02;;;;;;;7.40;6.00;;;29.30;41.30;;;;;;5003430;28;20177;-92
2022/04/19 11:35:32;;;;;;;9.70;5.93;;;29.50;40.80;;;;;;5005993;28;20212;-91
2022/04/19 11:38:02;;;;;;;8.82;5.60;;;29.60;40.10;;;;;;5018015;28;20192;-91
2022/04/19 11:48:50;;;;;;;5.90;4.68;;;30.40;39.60;;;;;;5014135;28;20173;-91
2022/04/19 11:51:18;;;;;;;7.40;5.97;;;30.90;38.70;;;;;;4996571;28;20177;-92
2022/04/19 11:53:45;;;;;;;8.73;6.18;;;30.90;38.20;;;;;;4996503;28;20196;-92
2022/04/19 11:56:10;;;;;;;7.35;6.07;;;31.40;38.90;;;;;;4996251;28;20201;-91
2022/04/19 11:58:39;;;;;;;6.97;6.05;;;31.80;38.20;;;;;;5013251;28;20169;-91
2022/04/19 12:01:06;;;;;;;12.93;6.55;;;32.40;38.40;;;;;;4996545;28;20177;-92
2022/04/19 12:03:37;;;;;;;6.95;6.25;;;32.60;37.90;;;;;;4997013;28;20173;-91
2022/04/19 12:06:08;;;;;;;9.07;6.85;;;32.80;38.20;;;;;;4996501;28;20178;-91
2022/04/19 12:08:42;;;;;;;9.48;7.15;;;32.80;37.90;;;;;;4999331;28;20189;-90
2022/04/19 12:11:14;;;;;;;9.38;6.78;;;32.50;38.40;;;;;;5014453;28;20177;-90
2022/04/19 12:13:43;;;;;;;8.60;6.70;;;32.70;38.00;;;;;;4995868;28;20543;-89
2022/04/19 12:16:32;;;;;;;7.13;6.32;;;32.60;38.40;;;;;;4995854;28;20221;-90
2022/04/19 12:19:00;;;;;;;10.45;7.00;;;32.90;39.00;;;;;;4996411;28;20545;-91
2022/04/19 12:21:39;;;;;;;9.15;7.53;;;33.30;38.70;;;;;;4995753;28;20197;-91
2022/04/19 12:24:19;;;;;;;9.68;7.20;;;33.80;38.00;;;;;;4996342;28;20267;-91
2022/04/19 12:27:03;;;;;;;8.93;7.15;;;34.10;38.40;;;;;;5013600;28;20188;-91
2022/04/19 12:29:29;;;;;;;10.95;6.30;;;34.60;37.30;;;;;;5012236;28;20231;-91
2022/04/19 12:32:00;;;;;;;8.32;5.80;;;34.40;37.70;;;;;;4995959;28;20539;-91
2022/04/19 12:34:36;;;;;;;6.53;5.40;;;34.30;37.20;;;;;;4996310;28;20193;-91
2022/04/19 12:37:16;;;;;;;12.32;5.88;;;34.10;36.70;;;;;;4996005;28;20247;-91
2022/04/19 12:39:59;;;;;;;6.63;4.80;;;34.00;37.10;;;;;;4996157;28;20193;-91
2022/04/19 12:42:27;;;;;;;5.93;4.43;;;34.30;37.10;;;;;;4996317;28;20212;-91
2022/04/19 12:45:05;;;;;;;6.72;4.40;;;34.10;36.60;;;;;;4995970;28;20185;-91
2022/04/19 12:47:31;;;;;;;7.47;4.65;;;34.00;36.70;;;;;;4995896;28;20553;-91
2022/04/19 12:49:58;;;;;;;6.95;4.90;;;34.40;36.80;;;;;;4996087;28;20179;-91
2022/04/19 12:52:31;;;;;;;8.80;6.25;;;34.50;36.90;;;;;;5015691;28;20216;-91
2022/04/19 12:55:01;;;;;;;8.10;5.25;;;34.40;37.30;;;;;;4999160;28;20627;-91
2022/04/19 12:57:27;;;;;;;9.68;5.65;;;34.50;37.70;;;;;;5015395;28;20196;-91
2022/04/19 12:59:55;;;;;;;5.88;5.07;;;34.50;37.20;;;;;;5015896;28;20177;-91
2022/04/19 13:02:20;;;;;;;6.63;4.55;;;34.20;37.80;;;;;;5017930;28;20256;-91
2022/04/19 13:04:47;;;;;;;6.10;4.93;;;34.20;37.50;;;;;;5016593;28;20797;-90
2022/04/19 13:12:46;;;;;;;7.55;4.57;;;33.60;37.90;;;;;;5016774;28;20236;-91
2022/04/19 13:15:13;;;;;;;7.80;4.75;;;33.60;37.70;;;;;;5015676;28;20189;-92
2022/04/19 13:17:41;;;;;;;7.82;5.57;;;33.90;37.60;;;;;;4999308;28;20177;-91
2022/04/19 13:20:15;;;;;;;7.03;5.60;;;34.30;37.60;;;;;;5000505;28;20180;-92
2022/04/19 13:22:41;;;;;;;7.28;5.78;;;34.50;37.80;;;;;;5000993;28;20235;-91
2022/04/19 13:25:08;;;;;;;8.50;6.18;;;34.60;37.20;;;;;;4999262;28;20193;-92
2022/04/19 13:27:36;;;;;;;7.10;5.70;;;34.40;37.20;;;;;;4999113;28;20213;-91
2022/04/19 13:30:07;;;;;;;7.18;5.93;;;34.50;37.70;;;;;;4999146;28;20526;-91
2022/04/19 13:32:33;;;;;;;8.07;5.43;;;35.10;37.60;;;;;;5015451;28;20568;-91
2022/04/19 13:34:58;;;;;;;8.57;5.18;;;34.90;38.30;;;;;;5015458;28;20300;-91
2022/04/19 13:40:09;;;;;;;7.65;5.15;;;35.40;37.50;;;;;;5016800;28;20212;-91
2022/04/19 13:42:35;;;;;;;6.15;5.10;;;35.40;37.00;;;;;;5015526;28;20196;-91
2022/04/19 13:45:01;;;;;;;6.75;4.45;;;35.50;36.50;;;;;;5015481;28;20280;-91
2022/04/19 13:47:28;;;;;;;7.47;4.93;;;35.60;36.70;;;;;;5015240;28;20222;-91
2022/04/19 13:49:55;;;;;;;9.05;4.57;;;35.70;36.90;;;;;;4998966;28;20177;-91
2022/04/19 13:52:21;;;;;;;7.25;5.28;;;36.30;37.00;;;;;;5015892;28;20168;-90
2022/04/19 13:54:48;;;;;;;6.43;4.63;;;36.40;36.90;;;;;;5015777;28;20176;-91
2022/04/19 13:57:13;;;;;;;5.68;4.68;;;36.70;36.90;;;;;;5014853;28;20213;-91
2022/04/19 13:59:39;;;;;;;8.02;4.75;;;36.80;36.30;;;;;;5014941;28;20169;-91
2022/04/19 14:02:05;;;;;;;7.18;5.43;;;36.70;36.40;;;;;;5014482;28;20173;-91
2022/04/19 14:04:30;;;;;;;5.75;4.55;;;36.60;36.80;;;;;;4998449;28;20169;-91
2022/04/19 14:06:59;;;;;;;6.88;5.20;;;36.90;36.70;;;;;;5014954;28;20182;-91
2022/04/19 14:09:25;;;;;;;9.23;5.00;;;37.30;36.90;;;;;;5014869;28;20173;-91
2022/04/19 14:11:51;;;;;;;5.90;4.85;;;37.60;36.10;;;;;;5014615;28;20211;-91
2022/04/19 14:14:16;;;;;;;5.97;4.55;;;37.80;35.90;;;;;;5014974;28;20188;-91
2022/04/19 14:16:44;;;;;;;5.85;4.45;;;38.10;36.00;;;;;;5014697;28;20589;-91
2022/04/19 14:19:11;;;;;;;7.15;4.97;;;37.80;36.00;;;;;;5014436;28;20177;-91
2022/04/19 14:21:37;;;;;;;8.02;5.18;;;38.00;35.90;;;;;;5014459;28;20247;-90
2022/04/19 14:24:03;;;;;;;6.10;4.93;;;38.20;35.90;;;;;;5014346;28;20200;-91
2022/04/19 14:26:29;;;;;;;6.30;5.18;;;37.90;36.10;;;;;;4998884;28;20177;-91
2022/04/19 14:34:23;;;;;;;7.65;5.63;;;38.30;36.10;;;;;;5015621;28;20187;-91
2022/04/19 14:36:50;;;;;;;7.85;5.85;;;38.30;35.40;;;;;;5014708;28;20213;-92